Time;durP1;ratioP1;P1;durP2;ratioP2;P2;SDS_P1;SDS_P2;PMS_P1;PMS_P2;Temp;Humidity;BMP_temperature;BMP_pressure;BME280_temperature;BME280_humidity;BME280_pressure;Samples;Min_cycle;Max_cycle;Signal;HPM_P1;HPM_P2
2022/11/07 00:01:15;;;;;;;9.63;3.63;;;10.50;99.90;;;;;;4751781;30;20509;-83
2022/11/07 00:03:50;;;;;;;8.32;2.88;;;10.50;99.90;;;;;;4773063;30;20732;-84
2022/11/07 00:06:16;;;;;;;13.23;3.00;;;10.50;99.90;;;;;;4769438;30;20075;-85
2022/11/07 00:08:44;;;;;;;9.32;2.78;;;10.50;99.90;;;;;;4742841;30;20063;-84
2022/11/07 00:11:15;;;;;;;9.75;3.10;;;9.70;99.90;;;;;;4768143;29;20059;-84
2022/11/07 00:13:41;;;;;;;9.20;2.65;;;10.50;99.90;;;;;;4773484;29;20062;-83
2022/11/07 00:16:11;;;;;;;11.65;2.70;;;10.70;99.90;;;;;;4771303;29;20503;-85
2022/11/07 00:18:37;;;;;;;13.10;2.45;;;10.60;99.90;;;;;;4792641;29;20050;-85
2022/11/07 00:21:07;;;;;;;8.88;2.70;;;10.50;99.90;;;;;;4787517;29;20138;-84
2022/11/07 00:23:33;;;;;;;8.02;2.35;;;10.60;99.90;;;;;;4767577;29;20051;-83
2022/11/07 00:26:08;;;;;;;12.15;2.70;;;10.60;99.90;;;;;;4787559;29;20109;-84
2022/11/07 00:28:42;;;;;;;9.85;2.00;;;10.60;99.90;;;;;;4788522;29;20058;-86
2022/11/07 00:31:12;;;;;;;9.38;1.92;;;10.70;99.90;;;;;;4787673;29;20100;-85
2022/11/07 00:33:38;;;;;;;9.02;2.35;;;10.60;99.90;;;;;;4772453;29;20547;-84
2022/11/07 00:36:06;;;;;;;7.50;2.10;;;10.60;99.90;;;;;;4771914;29;20056;-86
2022/11/07 00:38:35;;;;;;;12.38;2.63;;;10.70;99.90;;;;;;4786891;29;20089;-83
2022/11/07 00:41:04;;;;;;;10.20;2.10;;;11.10;99.90;;;;;;4760159;29;20055;-84
2022/11/07 00:43:31;;;;;;;7.95;2.17;;;10.60;99.90;;;;;;4776915;29;20596;-83
2022/11/07 00:45:59;;;;;;;12.48;2.00;;;10.70;99.90;;;;;;4791450;29;20062;-84
2022/11/07 00:48:25;;;;;;;8.70;2.25;;;10.60;99.90;;;;;;4776539;29;20075;-83
2022/11/07 00:50:51;;;;;;;13.50;2.92;;;10.70;99.90;;;;;;4787001;29;20055;-84
2022/11/07 00:53:17;;;;;;;13.73;3.00;;;10.70;99.90;;;;;;4762537;29;20086;-84
2022/11/07 00:55:44;;;;;;;13.27;3.28;;;10.70;99.90;;;;;;4785865;29;20088;-84
2022/11/07 00:58:10;;;;;;;12.43;3.33;;;10.70;99.90;;;;;;4775631;29;20051;-84
2022/11/07 01:00:37;;;;;;;13.00;3.13;;;10.70;99.90;;;;;;4787796;29;20054;-84
2022/11/07 01:05:59;;;;;;;7.30;3.05;;;10.70;99.90;;;;;;4789295;29;20122;-83
2022/11/07 01:08:26;;;;;;;10.05;3.35;;;10.70;99.90;;;;;;4772858;29;20052;-84
2022/11/07 01:10:51;;;;;;;13.65;3.53;;;10.60;99.90;;;;;;4789119;29;20070;-85
2022/11/07 01:13:17;;;;;;;10.38;3.63;;;10.60;99.90;;;;;;4778496;29;20494;-84
2022/11/07 01:15:46;;;;;;;9.20;3.38;;;10.60;99.90;;;;;;4777525;29;20062;-84
2022/11/07 01:18:12;;;;;;;12.07;3.30;;;10.60;99.90;;;;;;4778366;29;20059;-84
2022/11/07 01:20:41;;;;;;;9.82;3.00;;;10.60;99.90;;;;;;4762310;29;20078;-85
2022/11/07 01:23:07;;;;;;;13.90;3.10;;;10.60;99.90;;;;;;4772448;29;20160;-84
2022/11/07 01:25:35;;;;;;;12.27;2.67;;;10.60;99.90;;;;;;4778218;29;20054;-83
2022/11/07 01:28:01;;;;;;;12.40;3.03;;;10.60;99.90;;;;;;4776805;29;20174;-84
2022/11/07 01:30:27;;;;;;;11.70;3.20;;;10.60;99.90;;;;;;4777121;29;20055;-84
2022/11/07 01:32:53;;;;;;;11.75;3.60;;;10.60;99.90;;;;;;4789608;29;20519;-84
2022/11/07 01:35:18;;;;;;;14.07;3.38;;;10.70;99.90;;;;;;4773156;29;20056;-85
2022/11/07 01:37:44;;;;;;;10.45;3.67;;;10.80;99.90;;;;;;4773088;29;20043;-84
2022/11/07 01:40:15;;;;;;;10.32;3.28;;;10.70;99.90;;;;;;4788216;29;20055;-84
2022/11/07 01:42:41;;;;;;;11.88;3.55;;;10.70;99.90;;;;;;4775448;29;20043;-85
2022/11/07 01:45:12;;;;;;;11.30;3.10;;;10.70;99.90;;;;;;4786744;29;21228;-84
2022/11/07 01:47:38;;;;;;;10.57;3.05;;;10.70;99.90;;;;;;4776808;29;20150;-84
2022/11/07 01:50:06;;;;;;;9.98;3.42;;;10.70;99.90;;;;;;4802010;29;20099;-84
2022/11/07 01:52:38;;;;;;;14.98;3.20;;;10.70;99.90;;;;;;4774281;29;20191;-84
2022/11/07 01:55:07;;;;;;;10.45;3.22;;;10.70;99.90;;;;;;4776126;29;20054;-85
2022/11/07 01:57:40;;;;;;;12.02;2.97;;;10.70;99.90;;;;;;4785371;29;20130;-83
2022/11/07 02:00:09;;;;;;;11.15;3.08;;;10.80;99.90;;;;;;4788580;29;20048;-84
2022/11/07 02:02:36;;;;;;;15.80;2.80;;;10.70;99.90;;;;;;4777245;29;20047;-85
2022/11/07 02:05:04;;;;;;;9.77;3.10;;;11.00;99.90;;;;;;4778235;29;20061;-84
2022/11/07 02:07:30;;;;;;;10.65;3.13;;;10.30;99.90;;;;;;4771052;29;20170;-84
2022/11/07 02:09:57;;;;;;;12.23;2.88;;;11.00;99.90;;;;;;4789884;29;20063;-84
2022/11/07 02:12:26;;;;;;;11.07;2.65;;;10.70;99.90;;;;;;4787981;29;20124;-84
2022/11/07 02:14:52;;;;;;;11.98;2.88;;;10.70;99.90;;;;;;4758220;29;20066;-84
2022/11/07 02:17:18;;;;;;;9.52;2.45;;;10.70;99.90;;;;;;4776700;29;20655;-83
2022/11/07 02:19:49;;;;;;;11.77;2.60;;;10.70;99.90;;;;;;4770819;29;20137;-84
2022/11/07 02:22:18;;;;;;;12.88;3.08;;;10.70;99.90;;;;;;4789614;29;20090;-85
2022/11/07 02:24:46;;;;;;;11.63;3.00;;;10.70;99.90;;;;;;4789717;29;20055;-85
2022/11/07 02:27:15;;;;;;;10.75;2.63;;;10.80;99.90;;;;;;4774470;29;20435;-84
2022/11/07 02:29:43;;;;;;;13.13;2.50;;;10.80;99.90;;;;;;4774521;29;20063;-84
2022/11/07 02:32:13;;;;;;;17.98;3.00;;;10.80;99.90;;;;;;4771242;29;20158;-83
2022/11/07 02:34:39;;;;;;;19.67;3.20;;;10.90;99.90;;;;;;4786567;29;20051;-84
2022/11/07 02:37:18;;;;;;;15.90;2.72;;;10.90;99.90;;;;;;4770151;29;20088;-84
2022/11/07 02:39:44;;;;;;;14.18;2.63;;;10.90;99.90;;;;;;4772902;29;20852;-85
2022/11/07 02:42:10;;;;;;;16.10;3.50;;;10.90;99.90;;;;;;4765532;29;20047;-85
2022/11/07 02:44:35;;;;;;;13.18;2.70;;;11.00;99.90;;;;;;4771753;29;20562;-85
2022/11/07 02:47:01;;;;;;;19.08;2.88;;;11.20;99.90;;;;;;4774243;29;20062;-84
2022/11/07 02:49:30;;;;;;;16.63;3.53;;;11.20;99.90;;;;;;4774006;29;20378;-85
2022/11/07 02:52:01;;;;;;;23.30;3.20;;;11.20;99.90;;;;;;4783679;29;20057;-84
2022/11/07 02:54:27;;;;;;;11.30;2.65;;;11.30;99.90;;;;;;4757243;29;20187;-84
2022/11/07 02:56:53;;;;;;;15.38;2.85;;;11.40;99.90;;;;;;4773764;29;20080;-85
2022/11/07 02:59:19;;;;;;;15.07;3.28;;;11.40;99.90;;;;;;4773658;29;20130;-83
2022/11/07 03:01:47;;;;;;;16.95;2.25;;;11.00;99.90;;;;;;4746136;29;20201;-86
2022/11/07 03:04:14;;;;;;;11.05;2.08;;;10.50;99.90;;;;;;4758846;29;20133;-84
2022/11/07 03:06:40;;;;;;;12.40;2.08;;;11.30;99.90;;;;;;4775912;29;20066;-84
2022/11/07 03:09:06;;;;;;;12.68;2.50;;;11.30;99.90;;;;;;4784753;29;20703;-84
2022/11/07 03:11:31;;;;;;;11.05;3.58;;;11.20;99.90;;;;;;4764676;29;20177;-84
2022/11/07 03:13:57;;;;;;;7.03;2.20;;;11.20;99.90;;;;;;4759415;29;20383;-85
2022/11/07 03:16:23;;;;;;;11.30;2.30;;;11.20;99.90;;;;;;4774691;29;20069;-84
2022/11/07 03:18:48;;;;;;;9.68;2.25;;;11.20;99.90;;;;;;4769190;29;20059;-84
2022/11/07 03:21:14;;;;;;;9.15;1.90;;;10.50;99.90;;;;;;4773783;29;20739;-84
2022/11/07 03:23:40;;;;;;;11.70;2.30;;;11.30;99.90;;;;;;4776549;29;20043;-84
2022/11/07 03:26:09;;;;;;;7.40;2.03;;;11.00;99.90;;;;;;4776606;29;20055;-85
2022/11/07 03:28:35;;;;;;;10.57;2.25;;;10.90;99.90;;;;;;4788234;29;20043;-84
2022/11/07 03:31:02;;;;;;;8.95;2.30;;;10.40;99.90;;;;;;4788554;29;20075;-86
2022/11/07 03:33:29;;;;;;;10.70;3.05;;;9.80;99.90;;;;;;4783745;29;20557;-85
2022/11/07 03:35:54;;;;;;;13.77;2.90;;;10.80;99.90;;;;;;4774531;29;20059;-83
2022/11/07 03:38:23;;;;;;;7.57;2.30;;;10.80;99.90;;;;;;4760305;29;20058;-84
2022/11/07 03:40:52;;;;;;;10.30;2.97;;;10.80;99.90;;;;;;4773186;29;20151;-86
2022/11/07 03:43:17;;;;;;;10.88;2.35;;;10.80;99.90;;;;;;4782966;29;20108;-84
2022/11/07 03:45:43;;;;;;;11.23;2.13;;;10.90;99.90;;;;;;4771185;29;20059;-84
2022/11/07 03:48:11;;;;;;;12.35;2.92;;;11.00;99.90;;;;;;4767812;29;20051;-84
2022/11/07 03:50:37;;;;;;;12.90;2.88;;;10.90;99.90;;;;;;4786379;29;20512;-85
2022/11/07 03:53:02;;;;;;;12.80;2.83;;;11.00;99.90;;;;;;4769535;29;20043;-85
2022/11/07 03:55:28;;;;;;;11.60;3.08;;;11.00;99.90;;;;;;4771264;29;20051;-85
2022/11/07 03:57:54;;;;;;;12.32;2.47;;;10.90;99.90;;;;;;4784616;29;20058;-85
2022/11/07 04:00:20;;;;;;;11.00;2.60;;;10.90;99.90;;;;;;4784973;29;20047;-84
2022/11/07 04:02:45;;;;;;;10.18;2.80;;;10.90;99.90;;;;;;4787154;29;20051;-84
2022/11/07 04:05:16;;;;;;;12.05;2.88;;;10.90;99.90;;;;;;4774296;29;20065;-84
2022/11/07 04:07:44;;;;;;;11.27;2.60;;;10.90;99.90;;;;;;4770786;29;20078;-84
2022/11/07 04:10:10;;;;;;;9.40;2.60;;;10.90;99.90;;;;;;4776874;29;20054;-84
2022/11/07 04:18:04;;;;;;;11.60;2.78;;;10.90;99.90;;;;;;4782630;29;20122;-83
2022/11/07 04:20:30;;;;;;;12.93;3.17;;;10.90;99.90;;;;;;4777987;29;20051;-85
2022/11/07 04:22:55;;;;;;;10.50;3.00;;;10.90;99.90;;;;;;4777636;29;20051;-84
2022/11/07 04:27:41;;;;;;;10.73;2.55;;;10.90;99.90;;;;;;4780030;29;20121;-85
2022/11/07 04:28:07;;;;;;;14.57;2.93;;;10.90;99.90;;;;;;4781575;29;20054;-84
2022/11/07 04:30:32;;;;;;;12.40;2.80;;;10.90;99.90;;;;;;4788100;29;20061;-85
2022/11/07 04:33:00;;;;;;;15.35;3.22;;;11.00;99.90;;;;;;4777992;29;20054;-84
2022/11/07 04:35:29;;;;;;;10.35;3.13;;;10.90;99.90;;;;;;4789922;29;20971;-84
2022/11/07 04:37:55;;;;;;;10.77;3.10;;;10.90;99.90;;;;;;4776714;29;20046;-84
2022/11/07 04:40:21;;;;;;;11.82;3.47;;;10.90;99.90;;;;;;4794304;29;20498;-84
2022/11/07 04:42:47;;;;;;;10.38;3.42;;;10.90;99.90;;;;;;4761991;29;20049;-84
2022/11/07 04:45:14;;;;;;;10.73;3.15;;;11.10;99.90;;;;;;4765843;29;20437;-84
2022/11/07 04:47:40;;;;;;;8.90;3.00;;;10.90;99.90;;;;;;4803784;29;20046;-84
2022/11/07 04:50:09;;;;;;;12.18;3.75;;;10.90;99.90;;;;;;4781380;29;20062;-84
2022/11/07 04:52:35;;;;;;;10.00;3.38;;;10.80;99.90;;;;;;4778757;29;20646;-85
2022/11/07 04:55:01;;;;;;;9.07;2.92;;;10.80;99.90;;;;;;4795092;29;20050;-84
2022/11/07 04:57:26;;;;;;;15.10;3.28;;;10.80;99.90;;;;;;4782107;29;20065;-84
2022/11/07 04:59:52;;;;;;;8.90;3.47;;;10.80;99.90;;;;;;4766919;29;20066;-85
2022/11/07 05:02:21;;;;;;;10.48;3.30;;;10.80;99.90;;;;;;4778741;29;20097;-84
2022/11/07 05:04:47;;;;;;;11.82;3.20;;;10.80;99.90;;;;;;4777620;29;20527;-84
2022/11/07 05:07:12;;;;;;;9.38;3.00;;;10.80;99.90;;;;;;4792111;29;20125;-84
2022/11/07 05:09:38;;;;;;;11.52;2.75;;;10.70;99.90;;;;;;4788209;29;20969;-85
2022/11/07 05:12:04;;;;;;;11.57;2.90;;;10.80;99.90;;;;;;4779500;29;20063;-83
2022/11/07 05:14:30;;;;;;;10.70;2.33;;;10.80;99.90;;;;;;4779189;29;20603;-83
2022/11/07 05:16:58;;;;;;;12.07;3.97;;;10.70;99.90;;;;;;4778606;29;20057;-84
2022/11/07 05:19:24;;;;;;;11.25;2.90;;;10.70;99.90;;;;;;4780596;29;20493;-85
2022/11/07 05:23:10;;;;;;;10.25;2.80;;;10.50;99.90;;;;;;4760695;29;20058;-85
2022/11/07 05:24:36;;;;;;;10.98;2.90;;;10.80;99.90;;;;;;4787368;29;20059;-84
2022/11/07 05:27:02;;;;;;;5.93;2.45;;;10.80;99.90;;;;;;4793424;29;20054;-85
2022/11/07 05:29:28;;;;;;;8.75;2.58;;;10.70;99.90;;;;;;4772678;29;20070;-84
2022/11/07 05:31:53;;;;;;;10.05;3.15;;;10.70;99.90;;;;;;4793958;29;20058;-84
2022/11/07 05:34:19;;;;;;;11.73;3.10;;;10.50;99.90;;;;;;4765719;29;20074;-84
2022/11/07 05:36:45;;;;;;;10.00;2.50;;;10.70;99.90;;;;;;4777343;29;20488;-83
2022/11/07 05:39:11;;;;;;;7.57;2.13;;;10.60;99.90;;;;;;4771642;29;20138;-84
2022/11/07 05:41:37;;;;;;;13.95;2.30;;;10.70;99.90;;;;;;4779580;29;20090;-84
2022/11/07 05:44:02;;;;;;;11.60;2.15;;;10.70;99.90;;;;;;4772412;29;20510;-84
2022/11/07 05:46:28;;;;;;;11.27;1.90;;;10.60;99.90;;;;;;4791005;29;20523;-83
2022/11/07 05:48:54;;;;;;;8.98;2.17;;;10.60;99.90;;;;;;4797705;29;20133;-84
2022/11/07 05:51:20;;;;;;;8.80;2.10;;;10.60;99.90;;;;;;4780237;29;20063;-83
2022/11/07 05:53:46;;;;;;;11.02;2.17;;;10.60;99.90;;;;;;4777795;29;20058;-83
2022/11/07 05:56:15;;;;;;;5.00;1.90;;;10.70;99.90;;;;;;4780076;29;20598;-83
2022/11/07 05:58:40;;;;;;;10.57;2.38;;;10.80;99.90;;;;;;4775495;29;20058;-83
2022/11/07 06:01:08;;;;;;;8.80;2.85;;;10.80;99.90;;;;;;4777491;29;20057;-83
2022/11/07 06:03:36;;;;;;;9.15;2.55;;;10.70;99.90;;;;;;4787234;29;20587;-82
2022/11/07 06:06:02;;;;;;;8.70;2.90;;;10.70;99.90;;;;;;4778001;29;20093;-83
2022/11/07 06:08:28;;;;;;;10.27;2.60;;;10.70;99.90;;;;;;4794261;29;20133;-83
2022/11/07 06:10:53;;;;;;;7.57;2.53;;;10.70;99.90;;;;;;4770662;29;20075;-83
2022/11/07 06:13:19;;;;;;;4.53;2.75;;;10.70;99.90;;;;;;4776046;29;20497;-83
2022/11/07 06:15:45;;;;;;;5.50;2.30;;;10.70;99.90;;;;;;4768313;29;20051;-83
2022/11/07 06:18:15;;;;;;;5.97;2.28;;;10.70;99.90;;;;;;4786238;29;20462;-83
2022/11/07 06:20:43;;;;;;;5.30;2.22;;;10.70;99.90;;;;;;4787409;29;20062;-83
2022/11/07 06:23:09;;;;;;;7.40;2.72;;;10.70;99.90;;;;;;4788193;29;20066;-83
2022/11/07 06:25:35;;;;;;;10.75;2.90;;;10.70;99.90;;;;;;4772287;29;20051;-83
2022/11/07 06:28:08;;;;;;;8.18;2.83;;;10.70;99.90;;;;;;4768193;29;20189;-84
2022/11/07 06:30:34;;;;;;;11.82;3.20;;;10.70;99.90;;;;;;4781899;29;20055;-83
2022/11/07 06:33:02;;;;;;;9.70;3.38;;;10.80;99.90;;;;;;4784402;29;20043;-84
2022/11/07 06:35:28;;;;;;;9.30;3.33;;;10.70;99.90;;;;;;4773990;29;20335;-83
2022/11/07 06:37:54;;;;;;;11.88;3.80;;;10.80;99.90;;;;;;4775455;29;20063;-83
2022/11/07 06:40:20;;;;;;;9.77;3.30;;;10.80;99.90;;;;;;4788541;29;20198;-82
2022/11/07 06:42:46;;;;;;;12.32;3.65;;;10.80;99.90;;;;;;4790586;29;20139;-82
2022/11/07 06:45:12;;;;;;;10.63;2.80;;;10.80;99.90;;;;;;4776474;29;20086;-85
2022/11/07 06:47:38;;;;;;;10.30;2.33;;;10.70;99.90;;;;;;4771105;29;20058;-85
2022/11/07 06:50:04;;;;;;;7.60;2.58;;;10.80;99.90;;;;;;4793628;29;20051;-85
2022/11/07 06:52:30;;;;;;;8.75;2.30;;;10.80;99.90;;;;;;4785580;29;20082;-85
2022/11/07 06:54:56;;;;;;;5.38;1.55;;;10.70;99.90;;;;;;4789014;29;20142;-82
2022/11/07 06:57:22;;;;;;;3.70;1.33;;;10.40;99.90;;;;;;4774943;29;20503;-84
2022/11/07 06:59:48;;;;;;;5.20;1.30;;;10.70;99.90;;;;;;4785256;29;20579;-85
2022/11/07 07:02:13;;;;;;;3.55;1.30;;;10.60;99.90;;;;;;4773317;29;20053;-85
2022/11/07 07:04:39;;;;;;;4.00;1.50;;;10.60;99.90;;;;;;4775515;29;20586;-86
2022/11/07 07:07:05;;;;;;;5.13;2.33;;;10.60;99.90;;;;;;4774843;29;20074;-85
2022/11/07 07:09:32;;;;;;;6.68;2.67;;;10.50;99.90;;;;;;4747460;29;20165;-85
2022/11/07 07:11:58;;;;;;;9.68;3.00;;;10.60;99.90;;;;;;4775344;29;21111;-84
2022/11/07 07:14:24;;;;;;;6.53;3.38;;;10.60;99.90;;;;;;4767893;29;20047;-84
2022/11/07 07:16:50;;;;;;;10.68;3.15;;;10.70;99.90;;;;;;4774127;29;20055;-84
2022/11/07 07:19:16;;;;;;;9.80;3.83;;;10.60;99.90;;;;;;4786361;29;20055;-84
2022/11/07 07:21:44;;;;;;;12.07;4.28;;;10.70;99.90;;;;;;4770910;29;20578;-85
2022/11/07 07:24:10;;;;;;;10.50;3.33;;;10.60;99.90;;;;;;4766224;29;20535;-82
2022/11/07 07:26:36;;;;;;;8.15;2.65;;;10.70;99.90;;;;;;4774095;29;20054;-82
2022/11/07 07:29:04;;;;;;;5.75;2.10;;;10.80;99.90;;;;;;4785000;29;20081;-83
2022/11/07 07:31:31;;;;;;;5.65;1.70;;;10.80;99.90;;;;;;4788473;29;20042;-82
2022/11/07 07:33:57;;;;;;;5.07;1.88;;;10.80;99.90;;;;;;4783178;29;20160;-83
2022/11/07 07:36:23;;;;;;;5.63;2.13;;;10.80;99.90;;;;;;4771037;29;20134;-83
2022/11/07 07:38:50;;;;;;;7.18;1.85;;;10.90;99.90;;;;;;4773550;29;20122;-83
2022/11/07 07:41:17;;;;;;;4.22;1.88;;;10.90;99.90;;;;;;4785624;29;20061;-82
2022/11/07 07:43:43;;;;;;;10.88;2.55;;;10.90;99.90;;;;;;4783434;29;20050;-82
2022/11/07 07:46:14;;;;;;;5.88;2.30;;;10.90;99.90;;;;;;4758690;29;20245;-83
2022/11/07 07:48:40;;;;;;;6.82;1.88;;;10.90;99.90;;;;;;4788052;29;20055;-82
2022/11/07 07:51:08;;;;;;;6.35;1.50;;;10.90;99.90;;;;;;4794560;29;20059;-84
2022/11/07 07:53:36;;;;;;;7.75;2.58;;;10.90;99.90;;;;;;4765094;29;20054;-83
2022/11/07 07:56:06;;;;;;;5.20;2.20;;;10.90;99.90;;;;;;4794491;29;20128;-84
2022/11/07 07:58:32;;;;;;;6.07;2.40;;;10.90;99.90;;;;;;4792021;29;20078;-80
2022/11/07 08:00:57;;;;;;;9.63;3.58;;;11.00;99.90;;;;;;4794749;29;20068;-83
2022/11/07 08:03:25;;;;;;;10.63;3.67;;;11.00;99.90;;;;;;4778793;29;20495;-83
2022/11/07 08:05:54;;;;;;;12.73;4.13;;;11.00;99.90;;;;;;4783526;29;20055;-83
2022/11/07 08:08:20;;;;;;;11.70;3.65;;;11.10;99.90;;;;;;4793291;29;20058;-84
2022/11/07 08:10:52;;;;;;;11.02;3.92;;;11.10;99.90;;;;;;4783001;29;20066;-84
2022/11/07 08:13:19;;;;;;;9.52;3.75;;;11.10;99.90;;;;;;4796638;29;20062;-83
2022/11/07 08:15:44;;;;;;;18.27;4.97;;;11.20;99.90;;;;;;4765587;29;20144;-84
2022/11/07 08:18:10;;;;;;;11.35;3.65;;;10.20;99.90;;;;;;4781709;29;20657;-83
2022/11/07 08:20:36;;;;;;;12.75;4.25;;;11.20;99.90;;;;;;4782377;29;20146;-83
2022/11/07 08:23:04;;;;;;;13.52;3.83;;;11.20;99.90;;;;;;4783224;29;20498;-84
2022/11/07 08:25:30;;;;;;;9.52;3.70;;;10.50;99.90;;;;;;4794849;29;20642;-83
2022/11/07 08:27:56;;;;;;;11.82;3.80;;;11.20;99.90;;;;;;4778369;29;20147;-83
2022/11/07 08:30:22;;;;;;;6.88;2.97;;;11.20;99.90;;;;;;4779856;29;20105;-83
2022/11/07 08:32:48;;;;;;;11.30;3.53;;;11.20;99.90;;;;;;4754899;29;20047;-83
2022/11/07 08:35:13;;;;;;;10.70;2.55;;;11.20;99.90;;;;;;4777223;29;20050;-83
2022/11/07 08:37:39;;;;;;;8.48;2.75;;;11.20;99.90;;;;;;4761737;29;20063;-82
2022/11/07 08:40:05;;;;;;;8.50;2.63;;;11.20;99.90;;;;;;4766711;29;20062;-83
2022/11/07 08:42:31;;;;;;;7.90;2.92;;;11.20;99.90;;;;;;4777015;29;20083;-82
2022/11/07 08:44:57;;;;;;;8.32;2.72;;;11.20;99.90;;;;;;4792526;29;20093;-83
2022/11/07 08:47:22;;;;;;;11.70;3.83;;;10.90;99.90;;;;;;4777501;29;20062;-83
2022/11/07 08:49:48;;;;;;;14.10;3.45;;;11.20;99.90;;;;;;4777444;29;20055;-83
2022/11/07 08:52:14;;;;;;;15.13;4.10;;;11.30;99.90;;;;;;4795010;29;20051;-83
2022/11/07 08:54:40;;;;;;;15.35;4.95;;;11.40;99.90;;;;;;4776569;29;20055;-83
2022/11/07 08:57:05;;;;;;;15.18;4.53;;;11.30;99.90;;;;;;4768713;29;20059;-83
2022/11/07 08:59:31;;;;;;;12.68;4.15;;;11.40;99.90;;;;;;4783737;29;20065;-83
2022/11/07 09:01:57;;;;;;;16.88;4.30;;;11.40;99.90;;;;;;4776874;29;20124;-83
2022/11/07 09:04:22;;;;;;;12.43;4.22;;;11.40;99.90;;;;;;4780255;29;20053;-83
2022/11/07 09:06:48;;;;;;;13.80;4.60;;;11.50;99.90;;;;;;4780088;29;20055;-84
2022/11/07 09:09:14;;;;;;;14.15;4.82;;;11.50;99.90;;;;;;4778980;29;20145;-84
2022/11/07 09:11:41;;;;;;;13.52;4.03;;;11.60;99.90;;;;;;4768117;29;20065;-83
2022/11/07 09:14:06;;;;;;;13.35;4.50;;;11.60;99.90;;;;;;4790419;29;20055;-83
2022/11/07 09:16:32;;;;;;;12.57;4.15;;;11.60;99.90;;;;;;4762494;29;20128;-84
2022/11/07 09:18:58;;;;;;;15.35;4.40;;;11.60;99.90;;;;;;4769807;29;20157;-84
2022/11/07 09:21:23;;;;;;;15.98;4.45;;;11.60;99.90;;;;;;4790665;29;20043;-84
2022/11/07 09:23:50;;;;;;;12.85;3.92;;;11.70;99.90;;;;;;4778139;29;20038;-84
2022/11/07 09:26:16;;;;;;;15.13;4.50;;;11.70;99.90;;;;;;4794304;29;20070;-84
2022/11/07 09:28:42;;;;;;;14.93;4.20;;;11.70;99.90;;;;;;4781781;29;20051;-83
2022/11/07 09:31:07;;;;;;;17.88;4.20;;;11.70;99.90;;;;;;4781449;29;20087;-83
2022/11/07 09:33:36;;;;;;;12.32;3.75;;;11.70;99.90;;;;;;4781516;29;20128;-83
2022/11/07 09:36:03;;;;;;;11.32;3.97;;;11.80;99.90;;;;;;4798475;29;20501;-84
2022/11/07 09:38:32;;;;;;;8.90;3.25;;;11.80;99.90;;;;;;4779752;29;20062;-83
2022/11/07 09:41:32;;;;;;;9.52;3.20;;;11.80;99.90;;;;;;4780437;29;20071;-83
2022/11/07 09:44:23;;;;;;;8.57;3.42;;;11.80;99.90;;;;;;4800369;29;20051;-83
2022/11/07 09:46:54;;;;;;;12.20;3.20;;;11.90;99.90;;;;;;4787292;29;20057;-83
2022/11/07 09:49:51;;;;;;;8.13;2.75;;;11.90;99.90;;;;;;4789020;29;20113;-84
2022/11/07 09:52:41;;;;;;;14.23;3.42;;;12.00;99.90;;;;;;4784331;29;21258;-83
2022/11/07 09:55:17;;;;;;;11.05;2.92;;;12.10;99.90;;;;;;4772884;29;20067;-83
2022/11/07 09:57:47;;;;;;;6.03;2.80;;;12.10;99.90;;;;;;4776379;29;20157;-83
2022/11/07 10:00:18;;;;;;;9.98;3.47;;;12.10;99.90;;;;;;4774724;29;20082;-84
2022/11/07 10:02:48;;;;;;;13.43;3.63;;;12.20;99.90;;;;;;4792566;29;20447;-83
2022/11/07 10:06:11;;;;;;;10.05;2.92;;;12.20;99.90;;;;;;4790468;29;20607;-82
2022/11/07 10:08:39;;;;;;;14.25;3.58;;;12.30;99.90;;;;;;4756593;29;20633;-83
2022/11/07 10:11:28;;;;;;;8.13;2.92;;;12.30;99.90;;;;;;4742621;30;20060;-85
2022/11/07 10:14:22;;;;;;;9.55;3.53;;;12.30;99.90;;;;;;4777995;29;20071;-84
2022/11/07 10:17:02;;;;;;;12.68;3.78;;;12.30;99.90;;;;;;4770960;29;20130;-82
2022/11/07 10:19:48;;;;;;;11.48;3.40;;;12.40;99.90;;;;;;4800076;29;20055;-84
2022/11/07 10:22:28;;;;;;;10.23;2.80;;;12.50;99.90;;;;;;4784181;29;20111;-82
2022/11/07 10:25:13;;;;;;;8.63;3.05;;;12.50;99.90;;;;;;4774943;29;20070;-83
2022/11/07 10:27:39;;;;;;;9.77;2.80;;;12.50;99.90;;;;;;4793225;29;20055;-84
2022/11/07 10:30:15;;;;;;;11.23;3.33;;;12.50;99.90;;;;;;4791990;29;20578;-83
2022/11/07 10:33:24;;;;;;;13.98;3.38;;;12.50;99.90;;;;;;4789105;29;20046;-84
2022/11/07 10:35:55;;;;;;;14.23;3.97;;;12.50;99.90;;;;;;4739704;30;20048;-82
2022/11/07 10:38:30;;;;;;;10.50;3.30;;;12.60;99.90;;;;;;4781908;29;20088;-83
2022/11/07 10:40:56;;;;;;;11.27;3.20;;;12.60;99.90;;;;;;4778810;29;20059;-82
2022/11/07 10:43:24;;;;;;;13.57;3.47;;;12.70;99.90;;;;;;4779636;29;20081;-83
2022/11/07 10:45:51;;;;;;;12.20;3.22;;;12.70;99.90;;;;;;4789547;29;20055;-82
2022/11/07 10:48:17;;;;;;;11.13;3.15;;;12.80;99.90;;;;;;4765891;29;20075;-83
2022/11/07 10:50:53;;;;;;;11.60;3.35;;;12.80;99.90;;;;;;4793702;29;20151;-82
2022/11/07 10:53:20;;;;;;;7.40;3.10;;;12.90;99.90;;;;;;4790972;29;20136;-82
2022/11/07 10:55:48;;;;;;;10.32;3.33;;;12.90;99.90;;;;;;4801857;29;20203;-82
2022/11/07 10:58:25;;;;;;;7.75;2.78;;;12.90;99.90;;;;;;4779635;29;20062;-82
2022/11/07 11:00:59;;;;;;;8.38;3.40;;;12.90;99.90;;;;;;4788617;29;20051;-82
2022/11/07 11:03:33;;;;;;;11.30;2.80;;;12.80;99.90;;;;;;4790257;29;20545;-83
2022/11/07 11:06:17;;;;;;;12.00;3.15;;;12.80;99.90;;;;;;4778720;29;20051;-83
2022/11/07 11:08:50;;;;;;;13.57;3.63;;;12.80;99.90;;;;;;4780503;29;20479;-84
2022/11/07 11:11:33;;;;;;;13.57;2.83;;;12.70;99.90;;;;;;4773273;29;20066;-83
2022/11/07 11:14:10;;;;;;;15.18;3.20;;;12.70;99.90;;;;;;4775976;29;20561;-83
2022/11/07 11:16:38;;;;;;;13.10;3.20;;;12.70;99.90;;;;;;4772794;29;20058;-82
2022/11/07 11:19:24;;;;;;;12.20;3.10;;;12.60;99.90;;;;;;4778003;29;20056;-85
2022/11/07 11:21:53;;;;;;;11.88;3.58;;;12.60;99.90;;;;;;4780078;29;20063;-84
2022/11/07 11:24:38;;;;;;;10.65;3.17;;;12.60;99.90;;;;;;4789825;29;20198;-84
2022/11/07 11:27:14;;;;;;;9.82;3.83;;;12.60;99.90;;;;;;4786675;29;20244;-83
2022/11/07 11:30:04;;;;;;;14.13;4.03;;;12.60;99.90;;;;;;4788657;29;20576;-82
2022/11/07 11:32:39;;;;;;;13.38;3.78;;;12.60;99.90;;;;;;4787383;29;20432;-82
2022/11/07 11:35:32;;;;;;;12.65;4.28;;;12.60;99.90;;;;;;4774689;29;20178;-84
2022/11/07 11:38:07;;;;;;;11.25;4.07;;;12.70;99.90;;;;;;4789452;29;20062;-83
2022/11/07 11:40:41;;;;;;;13.27;3.97;;;12.70;99.90;;;;;;4777786;29;20067;-84
2022/11/07 11:43:06;;;;;;;15.85;4.47;;;12.80;99.90;;;;;;4778282;29;20098;-83
2022/11/07 11:45:53;;;;;;;13.43;4.05;;;12.90;99.90;;;;;;4787496;29;20514;-84
2022/11/07 11:48:44;;;;;;;15.20;4.65;;;13.00;99.90;;;;;;4776823;29;20085;-84
2022/11/07 11:51:27;;;;;;;16.98;4.43;;;13.10;99.90;;;;;;4787884;29;20063;-83
2022/11/07 11:53:53;;;;;;;12.27;3.92;;;13.20;99.90;;;;;;4775651;29;20467;-84
2022/11/07 11:56:25;;;;;;;13.93;3.75;;;13.30;99.90;;;;;;4788197;29;20054;-85
2022/11/07 11:58:51;;;;;;;12.52;3.50;;;13.30;99.90;;;;;;4775942;29;20051;-85
2022/11/07 12:01:35;;;;;;;13.85;3.85;;;13.40;99.90;;;;;;4786720;29;20050;-84
2022/11/07 12:04:25;;;;;;;13.18;3.75;;;13.50;99.90;;;;;;4776750;29;20080;-84
2022/11/07 12:07:01;;;;;;;11.32;3.55;;;13.70;99.90;;;;;;4789304;29;20059;-84
2022/11/07 12:09:43;;;;;;;10.63;3.00;;;13.70;99.90;;;;;;4789045;29;20051;-85
2022/11/07 12:12:32;;;;;;;12.35;3.03;;;13.70;99.90;;;;;;4794373;29;20145;-85
2022/11/07 12:15:15;;;;;;;10.63;3.20;;;13.60;99.90;;;;;;4778540;29;20047;-85
2022/11/07 12:17:58;;;;;;;12.02;3.20;;;13.50;99.90;;;;;;4775726;29;20059;-83
2022/11/07 12:20:41;;;;;;;11.88;3.08;;;13.50;99.90;;;;;;4778770;29;20134;-86
2022/11/07 12:23:48;;;;;;;15.10;3.30;;;13.50;99.90;;;;;;4776760;29;20059;-84
2022/11/07 12:26:29;;;;;;;12.40;3.30;;;13.60;99.90;;;;;;4776000;29;20088;-84
2022/11/07 12:28:59;;;;;;;13.00;3.28;;;13.70;99.90;;;;;;4804062;29;20304;-84
2022/11/07 12:31:28;;;;;;;16.42;3.22;;;13.80;99.90;;;;;;4789985;29;20055;-85
2022/11/07 12:34:03;;;;;;;13.05;3.65;;;13.80;99.90;;;;;;4789535;29;20062;-84
2022/11/07 12:36:36;;;;;;;15.68;3.90;;;14.00;99.90;;;;;;4791390;29;20059;-84
2022/11/07 12:39:19;;;;;;;11.25;3.92;;;14.00;99.90;;;;;;4782337;29;20486;-84
2022/11/07 12:42:02;;;;;;;11.98;3.40;;;14.00;99.90;;;;;;4781419;29;20141;-85
2022/11/07 12:44:51;;;;;;;11.35;3.38;;;14.00;99.90;;;;;;4783097;29;20050;-85
2022/11/07 12:47:36;;;;;;;14.85;3.97;;;14.00;99.90;;;;;;4806241;29;20082;-84
2022/11/07 12:50:11;;;;;;;11.30;3.25;;;13.70;99.90;;;;;;4791583;29;20502;-84
2022/11/07 12:52:39;;;;;;;15.15;3.95;;;14.00;99.90;;;;;;4779202;29;20055;-85
2022/11/07 12:55:30;;;;;;;11.95;3.13;;;14.10;99.90;;;;;;4787156;29;20063;-83
2022/11/07 12:58:02;;;;;;;10.35;3.17;;;14.10;99.90;;;;;;4779701;29;20184;-85
2022/11/07 13:00:28;;;;;;;9.77;3.53;;;14.00;99.90;;;;;;4777471;29;20142;-84
2022/11/07 13:03:03;;;;;;;10.13;3.40;;;14.00;99.90;;;;;;4765489;29;20497;-84